North Newton, KS

3:21 PM CDT on July 01, 2015 (GMT -0500)
APRSWXNET | | Change Station
CLOSE
Current Station
Personal Weather Station
Location: North Newton, KS
Elevation: 1515 ft
Nearby Weather Stations

Elev 1515 ft 38.18 °N, 97.30 °W | Updated 31 minutes ago

Partly Cloudy
Partly Cloudy
95 °F
Feels Like 98 °F
N
5
Wind Variable Wind from SSW
Gusts 11.0 mph

Today
High -- | Low -- °F
--% Chance of Precip.
Yesterday
High -- | Low -- °F
Precip. -- in
6:09 AM 8:56 PM
Full, 100% visible
Pressure 29.74 in
Visibility 10.0 miles
Clouds Few 8000 ft
Scattered Clouds 11000 ft
Heat Index 98 °F
Dew Point 65 °F
Humidity 38%
Rainfall in
Snow Depth Not available.
UV 9 out of 12
Pollen 5.20 out of 12
Air Quality Not available.
Flu Activity Not available.
METAR KAAO 011954Z AUTO 17006KT 10SM FEW080 SCT110 32/19 A2979 RMK AO2 RAB31E41 SLP069 P0000 T03220189

More Conditions Fewer Conditions

Pressure 29.74 in
Visibility 10.0 miles
Clouds Few 8000 ft
Scattered Clouds 11000 ft
Heat Index 98 °F
Dew Point 65 °F
Humidity 38%
Rainfall in
Snow Depth Not available.
UV 9 out of 12
Pollen 5.20 out of 12
Air Quality Not available.
Flu Activity Not available.
METAR KAAO 011954Z AUTO 17006KT 10SM FEW080 SCT110 32/19 A2979 RMK AO2 RAB31E41 SLP069 P0000 T03220189

More Conditions Fewer Conditions

10-Day Weather Forecast

×

Almanac

Astronomy

Jul. 01, 2015 Rise Set
Actual Time
Civil Twilight
Nautical Twilight
Astronomical Twilight
Moon
Length of Visible Light
Length of Day
Tomorrow will be .
, % of the Moon is Illuminated

Today's Extremes

State Highs State Lows

Community

WunderPhotos

Upload Photos

1,834,275 photos uploaded!

WunderBlogs® & News

Nearby

Air Quality

  Air Quality AQ Index Pollutant
Not available.

Snow Depth

Station Depth Elevation

Earthquake Activity

City Distance Mag. Time & Date
Minimum magnitude displayed is 2.5.

Coastal Water Temperatures

Place Temperature

Stations

Nearby Weather Stations

Station Location Temp. Windchill Dew Point Humidity Wind Precip. Elev Updated Type